createdAt,value
2023-05-23T00:00:23.584Z,88.96
2023-05-23T00:01:23.453Z,89.06
2023-05-23T00:02:23.528Z,89.06
2023-05-23T00:03:23.444Z,89.17
2023-05-23T00:04:23.473Z,88.96
2023-05-23T00:05:23.392Z,89.26
2023-05-23T00:06:23.405Z,89.23
2023-05-23T00:07:23.378Z,89.06
2023-05-23T00:08:23.373Z,89.26
2023-05-23T00:09:23.347Z,89.26
2023-05-23T00:10:23.336Z,89.17
2023-05-23T00:11:23.317Z,89.58
2023-05-23T00:12:23.316Z,89.37
2023-05-23T00:13:23.318Z,89.47
2023-05-23T00:14:23.283Z,89.78
2023-05-23T00:15:23.283Z,89.58
2023-05-23T00:16:23.443Z,89.17
2023-05-23T00:17:23.313Z,89.63
2023-05-23T00:18:23.240Z,89.23
2023-05-23T00:19:23.306Z,89.53
2023-05-23T00:20:23.226Z,89.53
2023-05-23T00:21:23.212Z,89.12
2023-05-23T00:22:23.232Z,89.43
2023-05-23T00:23:23.189Z,89.43
2023-05-23T00:24:23.189Z,89.43
2023-05-23T00:25:23.184Z,89.08
2023-05-23T00:26:23.154Z,89.63
2023-05-23T00:27:23.147Z,89.84
2023-05-23T00:28:23.133Z,90.51
2023-05-23T00:29:23.135Z,90.35
2023-05-23T00:30:23.111Z,90.04
2023-05-23T00:31:23.167Z,89.32
2023-05-23T00:32:23.261Z,89.94
2023-05-23T00:33:23.097Z,89.78
2023-05-23T00:34:23.070Z,90.08
2023-05-23T00:35:23.073Z,91.20
2023-05-23T00:36:23.044Z,92.33
2023-05-23T00:37:23.069Z,92.33
2023-05-23T00:38:23.025Z,91.11
2023-05-23T00:39:23.019Z,90.66
2023-05-23T00:40:23.001Z,90.04
2023-05-23T00:41:23.013Z,89.63
2023-05-23T00:42:23.001Z,89.63
2023-05-23T00:43:22.984Z,88.88
2023-05-23T00:44:23.059Z,88.67
2023-05-23T00:45:22.956Z,89.28
2023-05-23T00:46:22.984Z,88.98
2023-05-23T00:47:22.969Z,89.28
2023-05-23T00:48:23.032Z,88.88
2023-05-23T00:49:22.939Z,89.08
2023-05-23T00:50:22.908Z,90.00
2023-05-23T00:51:22.895Z,89.18
2023-05-23T00:52:22.888Z,89.49
2023-05-23T00:53:22.868Z,89.63
2023-05-23T00:54:22.851Z,89.69
2023-05-23T00:55:22.863Z,88.88
2023-05-23T00:56:22.830Z,89.02
2023-05-23T00:57:22.859Z,89.32
2023-05-23T00:58:22.812Z,89.53
2023-05-23T00:59:22.846Z,89.23
2023-05-23T01:00:22.787Z,89.23
2023-05-23T01:01:22.829Z,89.43
2023-05-23T01:02:22.816Z,89.12
2023-05-23T01:03:22.843Z,89.02
2023-05-23T01:04:22.858Z,89.43
2023-05-23T01:05:23.053Z,89.73
2023-05-23T01:06:22.718Z,89.47
2023-05-23T01:07:22.726Z,89.02
2023-05-23T01:08:22.693Z,89.84
2023-05-23T01:09:22.703Z,90.14
2023-05-23T01:10:22.681Z,89.98
2023-05-23T01:11:22.663Z,90.04
2023-05-23T01:12:22.654Z,90.39
2023-05-23T01:13:22.665Z,89.98
2023-05-23T01:14:22.630Z,90.04
2023-05-23T01:15:22.648Z,90.19
2023-05-23T01:16:22.656Z,90.39
2023-05-23T01:17:22.648Z,90.66
2023-05-23T01:18:22.583Z,91.37
2023-05-23T01:19:22.685Z,89.88
2023-05-23T01:20:22.710Z,89.88
2023-05-23T01:21:22.558Z,90.35
2023-05-23T01:22:22.536Z,91.47
2023-05-23T01:23:22.530Z,91.57
2023-05-23T01:24:22.516Z,92.23
2023-05-23T01:25:22.532Z,92.23
2023-05-23T01:26:22.500Z,90.90
2023-05-23T01:27:22.485Z,91.11
2023-05-23T01:28:22.479Z,91.20
2023-05-23T01:29:22.461Z,91.06
2023-05-23T01:30:22.460Z,90.25
2023-05-23T01:31:22.496Z,90.45
2023-05-23T01:32:22.480Z,91.67
2023-05-23T01:33:22.429Z,91.27
2023-05-23T01:34:22.402Z,91.37
2023-05-23T01:35:22.409Z,90.86
2023-05-23T01:36:22.501Z,91.27
2023-05-23T01:37:22.396Z,90.45
2023-05-23T01:38:22.400Z,91.16
2023-05-23T01:39:22.357Z,91.06
2023-05-23T01:40:22.341Z,91.16
2023-05-23T01:41:22.343Z,91.06
2023-05-23T01:42:22.331Z,91.06
2023-05-23T01:43:22.311Z,90.96
2023-05-23T01:44:22.305Z,90.86
2023-05-23T01:45:22.291Z,90.66
2023-05-23T01:46:22.427Z,90.59
2023-05-23T01:47:22.271Z,90.25
2023-05-23T01:48:22.274Z,90.35
2023-05-23T01:49:22.241Z,90.35
2023-05-23T01:50:22.256Z,90.45
2023-05-23T01:51:22.221Z,91.16
2023-05-23T01:52:22.643Z,91.11
2023-05-23T01:53:22.200Z,91.41
2023-05-23T01:54:22.203Z,91.56
2023-05-23T01:55:22.178Z,91.76
2023-05-23T01:56:22.177Z,91.05
2023-05-23T01:57:22.160Z,91.46
2023-05-23T01:58:22.147Z,92.37
2023-05-23T01:59:22.143Z,91.50
2023-05-23T02:00:22.144Z,91.29
2023-05-23T02:01:22.293Z,91.60
2023-05-23T02:02:22.201Z,92.62
2023-05-23T02:03:22.230Z,93.59
2023-05-23T02:04:22.082Z,94.10
2023-05-23T02:05:22.071Z,93.79
2023-05-23T02:06:22.072Z,94.60
2023-05-23T02:07:22.079Z,94.10
2023-05-23T02:08:22.153Z,93.59
2023-05-23T02:09:22.037Z,93.79
2023-05-23T02:10:22.041Z,93.89
2023-05-23T02:11:22.000Z,93.59
2023-05-23T02:12:22.024Z,93.54
2023-05-23T02:13:22.009Z,93.74
2023-05-23T02:14:21.983Z,93.28
2023-05-23T02:15:21.957Z,93.79
2023-05-23T02:16:22.045Z,93.13
2023-05-23T02:17:22.005Z,93.44
2023-05-23T02:18:21.973Z,93.38
2023-05-23T02:19:21.978Z,93.59
2023-05-23T02:20:21.914Z,93.59
2023-05-23T02:21:21.929Z,93.24
2023-05-23T02:22:21.895Z,92.77
2023-05-23T02:23:21.886Z,92.32
2023-05-23T02:24:21.981Z,93.44
2023-05-23T02:25:21.845Z,92.93
2023-05-23T02:26:21.837Z,92.42
2023-05-23T02:27:21.849Z,92.62
2023-05-23T02:28:21.817Z,92.42
2023-05-23T02:29:21.817Z,92.27
2023-05-23T02:30:21.825Z,92.32
2023-05-23T02:31:21.823Z,92.32
2023-05-23T02:32:21.769Z,92.42
2023-05-23T02:33:21.757Z,92.17
2023-05-23T02:34:21.758Z,93.65
2023-05-23T02:35:21.741Z,93.54
2023-05-23T02:36:21.742Z,93.74
2023-05-23T02:37:21.707Z,93.74
2023-05-23T02:38:21.703Z,93.65
2023-05-23T02:39:21.702Z,93.60
2023-05-23T02:40:21.809Z,93.60
2023-05-23T02:41:21.669Z,93.50
2023-05-23T02:42:21.686Z,93.74
2023-05-23T02:43:21.643Z,93.54
2023-05-23T02:44:21.638Z,93.60
2023-05-23T02:45:21.639Z,93.40
2023-05-23T02:46:21.629Z,93.29
2023-05-23T02:47:21.663Z,92.99
2023-05-23T02:48:21.610Z,93.05
2023-05-23T02:49:21.576Z,92.47
2023-05-23T02:50:21.569Z,92.58
2023-05-23T02:51:21.568Z,92.13
2023-05-23T02:52:21.546Z,92.99
2023-05-23T02:53:21.532Z,92.17
2023-05-23T02:54:21.536Z,92.23
2023-05-23T02:55:21.511Z,91.46
2023-05-23T02:56:21.649Z,91.92
2023-05-23T02:57:21.495Z,92.07
2023-05-23T02:58:21.477Z,91.31
2023-05-23T02:59:21.472Z,91.41
2023-05-23T03:00:21.471Z,92.23
2023-05-23T03:01:21.474Z,92.13
2023-05-23T03:02:21.444Z,92.47
2023-05-23T03:03:21.546Z,92.33
2023-05-23T03:04:21.427Z,92.33
2023-05-23T03:05:21.402Z,92.74
2023-05-23T03:06:21.418Z,92.02
2023-05-23T03:07:28.196Z,92.54
2023-05-23T03:08:22.375Z,92.27
2023-05-23T03:09:21.351Z,92.23
2023-05-23T03:10:21.354Z,93.25
2023-05-23T03:11:21.340Z,92.33
2023-05-23T03:12:21.474Z,91.92
2023-05-23T03:13:21.322Z,92.23
2023-05-23T03:14:21.298Z,91.47
2023-05-23T03:15:21.285Z,92.23
2023-05-23T03:16:21.315Z,91.41
2023-05-23T03:17:21.329Z,92.13
2023-05-23T03:18:21.305Z,92.33
2023-05-23T03:19:21.281Z,92.23
2023-05-23T03:20:21.260Z,91.27
2023-05-23T03:21:21.223Z,91.82
2023-05-23T03:22:21.204Z,91.41
2023-05-23T03:23:21.194Z,91.72
2023-05-23T03:24:21.205Z,91.31
2023-05-23T03:25:21.172Z,91.61
2023-05-23T03:26:21.159Z,92.02
2023-05-23T03:27:21.148Z,92.43
2023-05-23T03:28:21.277Z,92.13
2023-05-23T03:29:21.125Z,92.58
2023-05-23T03:30:21.132Z,93.09
2023-05-23T03:31:21.162Z,93.50
2023-05-23T03:32:21.127Z,92.99
2023-05-23T03:33:21.108Z,91.96
2023-05-23T03:34:21.068Z,92.88
2023-05-23T03:35:21.071Z,92.58
2023-05-23T03:36:21.058Z,93.70
2023-05-23T03:37:21.036Z,93.40
2023-05-23T03:38:21.027Z,93.65
2023-05-23T03:39:21.017Z,92.27
2023-05-23T03:40:21.010Z,93.54
2023-05-23T03:41:21.003Z,93.74
2023-05-23T03:42:21.027Z,93.85
2023-05-23T03:43:20.989Z,94.06
2023-05-23T03:44:21.091Z,93.79
2023-05-23T03:45:20.961Z,90.99
2023-05-23T03:46:21.028Z,92.32
2023-05-23T03:47:20.936Z,93.79
2023-05-23T03:48:20.957Z,93.99
2023-05-23T03:49:20.908Z,92.46
2023-05-23T03:50:20.896Z,93.99
2023-05-23T03:51:20.885Z,94.30
2023-05-23T03:52:20.888Z,93.69
2023-05-23T03:53:20.865Z,94.85
2023-05-23T03:54:20.869Z,93.79
2023-05-23T03:55:20.845Z,94.30
2023-05-23T03:56:20.828Z,94.14
2023-05-23T03:57:20.825Z,92.77
2023-05-23T03:58:20.819Z,92.46
2023-05-23T03:59:20.795Z,93.18
2023-05-23T04:00:20.913Z,92.56
2023-05-23T04:01:20.774Z,90.88
2023-05-23T04:02:20.816Z,92.32
2023-05-23T04:03:20.933Z,92.32
2023-05-23T04:04:20.799Z,92.56
2023-05-23T04:05:20.731Z,92.97
2023-05-23T04:06:20.729Z,92.87
2023-05-23T04:07:20.707Z,93.18
2023-05-23T04:08:20.696Z,92.66
2023-05-23T04:09:20.711Z,92.46
2023-05-23T04:10:20.679Z,94.10
2023-05-23T04:11:20.666Z,94.60
2023-05-23T04:12:20.667Z,94.24
2023-05-23T04:13:20.637Z,95.37
2023-05-23T04:14:20.629Z,95.26
2023-05-23T04:15:20.628Z,95.00
2023-05-23T04:16:20.752Z,95.00
2023-05-23T04:17:20.597Z,94.04
2023-05-23T04:18:20.597Z,94.04
2023-05-23T04:19:20.632Z,93.99
2023-05-23T04:20:20.561Z,93.69
2023-05-23T04:21:20.566Z,93.18
2023-05-23T04:22:20.583Z,93.18
2023-05-23T04:23:20.532Z,94.20
2023-05-23T04:24:20.546Z,94.46
2023-05-23T04:25:20.509Z,94.06
2023-05-23T04:26:20.497Z,93.74
2023-05-23T04:27:20.496Z,93.85
2023-05-23T04:28:20.483Z,93.85
2023-05-23T04:29:20.462Z,93.91
2023-05-23T04:30:20.481Z,93.29
2023-05-23T04:31:20.474Z,93.80
2023-05-23T04:32:20.563Z,94.26
2023-05-23T04:33:20.424Z,93.70
2023-05-23T04:34:20.426Z,92.88
2023-05-23T04:35:20.398Z,93.80
2023-05-23T04:36:20.437Z,94.01
2023-05-23T04:37:20.377Z,94.62
2023-05-23T04:38:20.368Z,94.42
2023-05-23T04:39:20.353Z,95.13
2023-05-23T04:40:20.366Z,94.98
2023-05-23T04:41:20.382Z,94.78
2023-05-23T04:42:20.339Z,94.48
2023-05-23T04:43:20.332Z,94.53
2023-05-23T04:44:20.315Z,93.82
2023-05-23T04:45:20.288Z,91.67
2023-05-23T04:46:20.310Z,91.16
2023-05-23T04:47:20.279Z,89.49
2023-05-23T04:48:20.399Z,90.31
2023-05-23T04:49:20.244Z,91.12
2023-05-23T04:50:20.240Z,89.59
2023-05-23T04:51:20.225Z,90.06
2023-05-23T04:52:20.225Z,90.47
2023-05-23T04:53:20.203Z,88.53
2023-05-23T04:54:20.208Z,88.02
2023-05-23T04:55:20.196Z,89.65
2023-05-23T04:56:21.672Z,90.26
2023-05-23T04:57:20.160Z,91.39
2023-05-23T04:58:20.167Z,90.26
2023-05-23T04:59:20.137Z,89.96
2023-05-23T05:00:20.147Z,89.90
2023-05-23T05:01:22.177Z,89.65
2023-05-23T05:02:20.138Z,89.96
2023-05-23T05:03:20.092Z,89.71
2023-05-23T05:04:20.263Z,88.85
2023-05-23T05:05:20.072Z,87.90
2023-05-23T05:06:20.077Z,88.10
2023-05-23T05:07:20.065Z,87.35
2023-05-23T05:08:20.089Z,85.61
2023-05-23T05:09:20.033Z,85.92
2023-05-23T05:10:20.019Z,85.92
2023-05-23T05:11:20.017Z,86.37
2023-05-23T05:12:20.028Z,85.96
2023-05-23T05:13:19.998Z,85.66
2023-05-23T05:14:19.993Z,85.72
2023-05-23T05:15:19.961Z,85.98
2023-05-23T05:16:19.967Z,85.06
2023-05-23T05:17:19.959Z,85.47
2023-05-23T05:18:19.945Z,85.17
2023-05-23T05:19:20.008Z,83.97
2023-05-23T05:20:20.048Z,84.48
2023-05-23T05:21:19.898Z,83.76
2023-05-23T05:22:19.892Z,82.07
2023-05-23T05:23:19.888Z,82.54
2023-05-23T05:24:19.880Z,81.73
2023-05-23T05:25:19.852Z,81.53
2023-05-23T05:26:19.856Z,81.33
2023-05-23T05:27:19.864Z,82.10
2023-05-23T05:28:19.822Z,81.12
2023-05-23T05:29:19.806Z,80.58
2023-05-23T05:30:19.833Z,80.44
2023-05-23T05:31:19.864Z,79.32
2023-05-23T05:32:19.837Z,79.28
2023-05-23T05:33:19.766Z,80.30
2023-05-23T05:34:19.758Z,79.99
2023-05-23T05:35:19.753Z,79.18
2023-05-23T05:36:19.854Z,78.88
2023-05-23T05:37:19.730Z,80.19
2023-05-23T05:38:19.732Z,80.91
2023-05-23T05:39:19.702Z,80.50
2023-05-23T05:40:19.696Z,78.67
2023-05-23T05:41:19.698Z,79.49
2023-05-23T05:42:19.693Z,79.96
2023-05-23T05:43:19.657Z,79.61
2023-05-23T05:44:19.656Z,81.50
2023-05-23T05:45:19.631Z,78.46
2023-05-23T05:46:19.678Z,78.02
2023-05-23T05:47:19.610Z,78.22
2023-05-23T05:48:19.616Z,78.73
2023-05-23T05:49:19.589Z,80.39
2023-05-23T05:50:19.593Z,79.58
2023-05-23T05:51:19.574Z,79.27
2023-05-23T05:52:19.702Z,79.24
2023-05-23T05:53:19.580Z,78.46
2023-05-23T05:54:19.554Z,79.58
2023-05-23T05:55:19.527Z,81.50
2023-05-23T05:56:19.530Z,81.24
2023-05-23T05:57:19.517Z,80.46
2023-05-23T05:58:19.500Z,81.78
2023-05-23T05:59:19.494Z,80.22
2023-05-23T06:00:19.485Z,79.45
2023-05-23T06:01:19.462Z,80.60
2023-05-23T06:02:19.559Z,79.65
2023-05-23T06:03:19.525Z,80.43
2023-05-23T06:04:19.473Z,78.80
2023-05-23T06:05:19.436Z,79.96
2023-05-23T06:06:19.436Z,79.65
2023-05-23T06:07:19.409Z,79.08
2023-05-23T06:08:19.501Z,80.19
2023-05-23T06:09:19.388Z,78.74
2023-05-23T06:10:19.372Z,79.27
2023-05-23T06:11:19.394Z,79.38
2023-05-23T06:12:19.379Z,78.97
2023-05-23T06:13:19.337Z,79.88
2023-05-23T06:14:19.322Z,80.29
2023-05-23T06:15:19.318Z,80.55
2023-05-23T06:16:19.357Z,80.19
2023-05-23T06:17:19.369Z,79.78
2023-05-23T06:18:19.309Z,80.15
2023-05-23T06:19:19.293Z,79.50
2023-05-23T06:20:19.259Z,78.69
2023-05-23T06:21:19.254Z,78.42
2023-05-23T06:22:19.260Z,78.89
2023-05-23T06:23:19.249Z,78.75
2023-05-23T06:24:19.335Z,78.88
2023-05-23T06:25:19.209Z,75.85
2023-05-23T06:26:19.195Z,76.15
2023-05-23T06:27:19.192Z,75.68
2023-05-23T06:28:19.186Z,76.43
2023-05-23T06:29:19.167Z,75.42
2023-05-23T06:30:19.173Z,76.26
2023-05-23T06:31:19.182Z,78.75
2023-05-23T06:32:19.146Z,77.75
2023-05-23T06:33:19.122Z,77.00
2023-05-23T06:34:19.106Z,77.50
2023-05-23T06:35:19.098Z,78.52
2023-05-23T06:36:19.095Z,77.50
2023-05-23T06:37:19.081Z,75.28
2023-05-23T06:38:19.073Z,75.82
2023-05-23T06:39:19.052Z,76.36
2023-05-23T06:40:19.179Z,77.01
2023-05-23T06:41:19.031Z,77.61
2023-05-23T06:42:19.030Z,78.87
2023-05-23T06:43:19.011Z,77.61
2023-05-23T06:44:19.011Z,78.79
2023-05-23T06:45:18.993Z,76.83
2023-05-23T06:46:19.147Z,77.91
2023-05-23T06:47:18.983Z,74.67
2023-05-23T06:48:18.968Z,74.00
2023-05-23T06:49:18.956Z,74.07
2023-05-23T06:50:18.931Z,75.92
2023-05-23T06:51:18.958Z,75.42
2023-05-23T06:52:18.921Z,76.32
2023-05-23T06:53:19.390Z,76.53
2023-05-23T06:54:18.910Z,76.26
2023-05-23T06:55:18.876Z,76.63
2023-05-23T06:56:18.991Z,78.28
2023-05-23T06:57:18.862Z,76.62
2023-05-23T06:58:18.854Z,74.23
2023-05-23T06:59:18.837Z,75.89
2023-05-23T07:00:18.835Z,73.72
2023-05-23T07:01:18.904Z,74.84
2023-05-23T07:02:18.809Z,76.12
2023-05-23T07:03:18.792Z,76.32
2023-05-23T07:04:18.802Z,75.98
2023-05-23T07:05:18.819Z,75.84
2023-05-23T07:06:18.766Z,76.31
2023-05-23T07:07:18.794Z,72.48
2023-05-23T07:08:18.741Z,75.10
2023-05-23T07:09:18.741Z,74.90
2023-05-23T07:10:18.728Z,73.49
2023-05-23T07:11:18.705Z,74.26
2023-05-23T07:12:18.828Z,73.25
2023-05-23T07:13:18.680Z,73.92
2023-05-23T07:14:18.667Z,74.29
2023-05-23T07:15:18.675Z,73.88
2023-05-23T07:16:18.660Z,73.68
2023-05-23T07:17:18.706Z,71.26
2023-05-23T07:18:18.641Z,71.60
2023-05-23T07:19:18.658Z,72.41
2023-05-23T07:20:18.605Z,72.54
2023-05-23T07:21:18.613Z,71.80
2023-05-23T07:22:18.579Z,75.57
2023-05-23T07:23:18.576Z,74.73
2023-05-23T07:24:18.577Z,74.96
2023-05-23T07:25:18.554Z,74.32
2023-05-23T07:26:18.534Z,74.16
2023-05-23T07:27:18.540Z,74.26
2023-05-23T07:28:18.636Z,71.57
2023-05-23T07:29:18.506Z,75.07
2023-05-23T07:30:18.520Z,74.49
2023-05-23T07:31:18.532Z,70.97
2023-05-23T07:32:18.468Z,72.78
2023-05-23T07:33:18.461Z,74.62
2023-05-23T07:34:18.461Z,70.39
2023-05-23T07:35:18.440Z,73.05
2023-05-23T07:36:18.452Z,71.73
2023-05-23T07:37:18.428Z,75.56
2023-05-23T07:38:18.410Z,73.41
2023-05-23T07:39:18.398Z,71.80
2023-05-23T07:40:18.383Z,74.59
2023-05-23T07:41:18.376Z,76.07
2023-05-23T07:42:18.424Z,73.61
2023-05-23T07:43:18.358Z,73.61
2023-05-23T07:44:18.369Z,71.80
2023-05-23T07:45:18.336Z,71.94
2023-05-23T07:46:18.380Z,73.05
2023-05-23T07:47:18.318Z,70.93
2023-05-23T07:48:18.320Z,72.51
2023-05-23T07:49:18.292Z,72.94
2023-05-23T07:50:18.275Z,70.53
2023-05-23T07:51:18.269Z,73.18
2023-05-23T07:52:18.268Z,69.29
2023-05-23T07:53:18.252Z,69.76
2023-05-23T07:54:18.252Z,69.15
2023-05-23T07:55:18.230Z,69.99
2023-05-23T07:56:18.253Z,69.59
2023-05-23T07:57:18.211Z,70.83
2023-05-23T07:58:18.197Z,69.42
2023-05-23T07:59:18.193Z,72.17
2023-05-23T08:00:18.190Z,71.06
2023-05-23T08:01:18.180Z,71.13
2023-05-23T08:02:18.229Z,69.69
2023-05-23T08:03:18.174Z,68.82
2023-05-23T08:04:18.213Z,67.65
2023-05-23T08:05:18.122Z,71.56
2023-05-23T08:06:18.115Z,71.47
2023-05-23T08:07:19.601Z,67.85
2023-05-23T08:08:18.108Z,69.96
2023-05-23T08:09:18.073Z,69.39
2023-05-23T08:10:18.059Z,68.35
2023-05-23T08:11:18.051Z,69.62
2023-05-23T08:12:18.045Z,69.15
2023-05-23T08:13:18.031Z,70.12
2023-05-23T08:14:18.047Z,70.39
2023-05-23T08:15:18.025Z,69.82
2023-05-23T08:16:18.111Z,72.17
2023-05-23T08:17:17.996Z,73.38
2023-05-23T08:18:18.085Z,72.38
2023-05-23T08:19:18.043Z,71.17
2023-05-23T08:20:17.952Z,71.67
2023-05-23T08:21:17.955Z,73.08
2023-05-23T08:22:17.930Z,73.42
2023-05-23T08:23:17.954Z,74.29
2023-05-23T08:24:17.924Z,73.72
2023-05-23T08:25:17.915Z,72.85
2023-05-23T08:26:17.888Z,72.68
2023-05-23T08:27:17.891Z,74.33
2023-05-23T08:28:17.868Z,75.71
2023-05-23T08:29:17.878Z,75.91
2023-05-23T08:30:17.859Z,75.37
2023-05-23T08:31:17.839Z,75.31
2023-05-23T08:32:18.054Z,74.49
2023-05-23T08:33:17.818Z,76.62
2023-05-23T08:34:17.822Z,76.82
2023-05-23T08:35:17.812Z,77.53
2023-05-23T08:36:17.793Z,76.31
2023-05-23T08:37:17.774Z,77.32
2023-05-23T08:38:17.761Z,78.30
2023-05-23T08:39:17.764Z,76.51
2023-05-23T08:40:17.746Z,77.08
2023-05-23T08:41:17.747Z,77.12
2023-05-23T08:42:17.795Z,77.42
2023-05-23T08:43:17.713Z,79.41
2023-05-23T08:44:17.708Z,77.19
2023-05-23T08:45:17.713Z,76.58
2023-05-23T08:46:17.727Z,77.97
2023-05-23T08:47:17.679Z,78.17
2023-05-23T08:48:17.692Z,77.56
2023-05-23T08:49:17.677Z,78.61
2023-05-23T08:50:19.454Z,79.32
2023-05-23T08:51:17.632Z,80.02
2023-05-23T08:52:17.606Z,79.92
2023-05-23T08:53:17.603Z,79.99
2023-05-23T08:54:17.597Z,76.79
2023-05-23T08:55:17.584Z,77.70
2023-05-23T08:56:17.566Z,78.64
2023-05-23T08:57:17.582Z,78.04
2023-05-23T08:58:17.541Z,77.33
2023-05-23T08:59:17.530Z,77.80
2023-05-23T09:00:17.533Z,77.53
2023-05-23T09:01:17.561Z,77.53
2023-05-23T09:02:17.529Z,78.64
2023-05-23T09:03:17.495Z,78.91
2023-05-23T09:04:17.501Z,76.79
2023-05-23T09:05:17.518Z,77.19
2023-05-23T09:06:17.476Z,76.89
2023-05-23T09:07:17.444Z,78.30
2023-05-23T09:08:17.443Z,78.10
2023-05-23T09:09:17.428Z,77.70
2023-05-23T09:10:17.409Z,78.81
2023-05-23T09:11:17.404Z,77.39
2023-05-23T09:12:17.414Z,78.17
2023-05-23T09:13:17.379Z,75.74
2023-05-23T09:14:17.367Z,76.69
2023-05-23T09:15:17.617Z,76.86
2023-05-23T09:16:17.432Z,78.88
2023-05-23T09:17:17.346Z,76.28
2023-05-23T09:18:17.332Z,76.95
2023-05-23T09:19:17.386Z,75.88
2023-05-23T09:20:17.363Z,78.57
2023-05-23T09:21:17.299Z,78.61
2023-05-23T09:22:17.279Z,78.06
2023-05-23T09:23:17.285Z,79.79
2023-05-23T09:24:17.282Z,79.88
2023-05-23T09:25:17.245Z,78.53
2023-05-23T09:26:17.240Z,78.33
2023-05-23T09:27:17.228Z,79.44
2023-05-23T09:28:17.209Z,78.53
2023-05-23T09:29:17.219Z,79.85
2023-05-23T09:30:17.200Z,76.31
2023-05-23T09:31:17.190Z,79.54
2023-05-23T09:32:17.171Z,79.94
2023-05-23T09:33:17.226Z,78.33
2023-05-23T09:34:17.160Z,76.21
2023-05-23T09:35:17.165Z,77.53
2023-05-23T09:36:17.208Z,80.05
2023-05-23T09:37:17.116Z,79.74
2023-05-23T09:38:17.112Z,80.35
2023-05-23T09:39:17.096Z,80.05
2023-05-23T09:40:17.181Z,77.22
2023-05-23T09:41:17.080Z,78.47
2023-05-23T09:42:17.064Z,79.64
2023-05-23T09:43:17.053Z,80.85
2023-05-23T09:44:17.097Z,78.84
2023-05-23T09:45:17.240Z,78.67
2023-05-23T09:46:17.029Z,79.28
2023-05-23T09:47:17.162Z,78.88
2023-05-23T09:48:17.036Z,79.99
2023-05-23T09:49:17.033Z,79.88
2023-05-23T09:50:17.000Z,78.67
2023-05-23T09:51:16.976Z,78.57
2023-05-23T09:52:16.976Z,79.48
2023-05-23T09:53:16.960Z,79.68
2023-05-23T09:54:16.941Z,81.05
2023-05-23T09:55:16.929Z,79.74
2023-05-23T09:56:16.917Z,79.94
2023-05-23T09:57:16.912Z,81.40
2023-05-23T09:58:16.895Z,80.85
2023-05-23T09:59:16.894Z,79.41
2023-05-23T10:00:16.961Z,81.93
2023-05-23T10:01:16.907Z,77.28
2023-05-23T10:02:16.843Z,78.80
2023-05-23T10:03:16.888Z,78.33
2023-05-23T10:04:16.895Z,78.77
2023-05-23T10:05:16.820Z,80.99
2023-05-23T10:06:16.793Z,79.72
2023-05-23T10:07:16.800Z,79.58
2023-05-23T10:08:16.895Z,79.52
2023-05-23T10:09:16.767Z,80.57
2023-05-23T10:10:16.787Z,81.84
2023-05-23T10:11:16.824Z,80.93
2023-05-23T10:12:16.732Z,83.36
2023-05-23T10:13:16.724Z,83.56
2023-05-23T10:14:16.710Z,84.33
2023-05-23T10:15:16.718Z,84.89
2023-05-23T10:16:16.764Z,82.57
2023-05-23T10:17:16.793Z,80.76
2023-05-23T10:18:16.666Z,83.07
2023-05-23T10:19:16.751Z,83.48
2023-05-23T10:20:16.790Z,84.39
2023-05-23T10:21:16.637Z,81.16
2023-05-23T10:22:16.638Z,78.91
2023-05-23T10:23:16.641Z,78.77
2023-05-23T10:24:16.619Z,81.10
2023-05-23T10:25:16.615Z,79.85
2023-05-23T10:26:16.583Z,78.39
2023-05-23T10:27:16.568Z,75.87
2023-05-23T10:28:16.568Z,76.98
2023-05-23T10:29:16.580Z,77.28
2023-05-23T10:30:16.535Z,81.12
2023-05-23T10:31:16.526Z,78.70
2023-05-23T10:32:16.520Z,80.15
2023-05-23T10:33:16.496Z,80.92
2023-05-23T10:34:16.490Z,76.42
2023-05-23T10:35:16.511Z,78.43
2023-05-23T10:36:16.526Z,80.05
2023-05-23T10:37:16.451Z,78.43
2023-05-23T10:38:16.446Z,77.02
2023-05-23T10:39:16.437Z,78.23
2023-05-23T10:40:16.474Z,77.93
2023-05-23T10:41:16.433Z,76.92
2023-05-23T10:42:16.396Z,77.36
2023-05-23T10:43:16.384Z,76.42
2023-05-23T10:44:16.381Z,78.13
2023-05-23T10:45:16.397Z,79.68
2023-05-23T10:46:16.487Z,78.53
2023-05-23T10:47:16.462Z,80.55
2023-05-23T10:48:16.335Z,76.58
2023-05-23T10:49:16.320Z,78.50
2023-05-23T10:50:16.319Z,74.66
2023-05-23T10:51:16.313Z,75.47
2023-05-23T10:52:16.329Z,75.27
2023-05-23T10:53:16.289Z,71.23
2023-05-23T10:54:16.278Z,74.26
2023-05-23T10:55:16.253Z,73.22
2023-05-23T10:56:16.272Z,76.71
2023-05-23T10:57:16.243Z,73.75
2023-05-23T10:58:16.231Z,73.21
2023-05-23T10:59:16.255Z,75.35
2023-05-23T11:00:16.305Z,73.44
2023-05-23T11:01:16.204Z,72.03
2023-05-23T11:02:16.326Z,72.37
2023-05-23T11:03:16.297Z,67.47
2023-05-23T11:04:16.185Z,68.48
2023-05-23T11:05:16.169Z,72.00
2023-05-23T11:06:16.153Z,77.29
2023-05-23T11:07:16.129Z,68.95
2023-05-23T11:08:16.129Z,69.85
2023-05-23T11:09:16.104Z,75.45
2023-05-23T11:10:16.099Z,69.82
2023-05-23T11:11:16.140Z,67.04
2023-05-23T11:12:16.110Z,72.33
2023-05-23T11:13:16.062Z,68.92
2023-05-23T11:14:16.060Z,63.12
2023-05-23T11:15:16.043Z,66.84
2023-05-23T11:16:16.091Z,64.80
2023-05-23T11:17:16.044Z,64.20
2023-05-23T11:18:16.008Z,62.46
2023-05-23T11:19:16.026Z,64.80
2023-05-23T11:20:15.997Z,63.39
2023-05-23T11:21:15.977Z,66.91
2023-05-23T11:22:15.963Z,67.65
2023-05-23T11:23:15.968Z,67.85
2023-05-23T11:24:15.952Z,64.63
2023-05-23T11:25:15.936Z,69.96
2023-05-23T11:26:15.917Z,71.50
2023-05-23T11:27:15.932Z,67.00
2023-05-23T11:28:15.920Z,70.16
2023-05-23T11:29:15.900Z,69.01
2023-05-23T11:30:15.892Z,71.53
2023-05-23T11:31:15.887Z,70.12
2023-05-23T11:32:17.865Z,72.07
2023-05-23T11:33:15.884Z,69.48
2023-05-23T11:34:15.857Z,75.20
2023-05-23T11:35:15.853Z,76.31
2023-05-23T11:36:15.822Z,76.57
2023-05-23T11:37:15.809Z,75.33
2023-05-23T11:38:15.806Z,69.92
2023-05-23T11:39:15.784Z,69.62
2023-05-23T11:40:15.785Z,74.35
2023-05-23T11:41:15.776Z,75.16
2023-05-23T11:42:15.757Z,75.96
2023-05-23T11:43:15.745Z,76.47
2023-05-23T11:44:15.800Z,75.56
2023-05-23T11:45:15.735Z,76.27
2023-05-23T11:46:15.767Z,75.16
2023-05-23T11:47:15.719Z,75.96
2023-05-23T11:48:15.688Z,75.76
2023-05-23T11:49:15.688Z,76.03
2023-05-23T11:50:15.683Z,74.85
2023-05-23T11:51:15.676Z,75.79
2023-05-23T11:52:15.649Z,76.52
2023-05-23T11:53:15.661Z,74.11
2023-05-23T11:54:15.626Z,73.74
2023-05-23T11:55:15.633Z,72.84
2023-05-23T11:56:15.605Z,73.07
2023-05-23T11:57:15.595Z,74.88
2023-05-23T11:58:15.589Z,69.99
2023-05-23T11:59:15.581Z,70.09
2023-05-23T12:00:15.674Z,70.79
2023-05-23T12:01:15.548Z,68.48
2023-05-23T12:02:15.654Z,68.88
2023-05-23T12:03:15.658Z,71.26
2023-05-23T12:04:15.674Z,71.09
2023-05-23T12:05:15.514Z,71.36
2023-05-23T12:06:15.490Z,70.70
2023-05-23T12:07:15.540Z,69.82
2023-05-23T12:08:15.478Z,68.85
2023-05-23T12:09:15.461Z,69.65
2023-05-23T12:10:15.492Z,71.63
2023-05-23T12:11:15.449Z,73.41
2023-05-23T12:12:15.424Z,74.52
2023-05-23T12:13:15.417Z,73.51
2023-05-23T12:14:15.422Z,73.68
2023-05-23T12:15:15.401Z,73.48
2023-05-23T12:16:15.442Z,74.35
2023-05-23T12:17:15.389Z,73.38
2023-05-23T12:18:15.449Z,72.88
2023-05-23T12:19:15.384Z,73.41
2023-05-23T12:20:15.377Z,72.84
2023-05-23T12:21:15.340Z,72.90
2023-05-23T12:22:15.318Z,69.85
2023-05-23T12:23:15.337Z,71.23
2023-05-23T12:24:15.304Z,69.82
2023-05-23T12:25:15.298Z,67.61
2023-05-23T12:26:15.272Z,68.32
2023-05-23T12:27:15.281Z,69.15
2023-05-23T12:28:15.251Z,71.23
2023-05-23T12:29:15.256Z,70.12
2023-05-23T12:30:15.281Z,69.12
2023-05-23T12:31:15.256Z,71.39
2023-05-23T12:32:15.242Z,69.59
2023-05-23T12:33:15.227Z,67.52
2023-05-23T12:34:15.189Z,68.79
2023-05-23T12:35:15.200Z,66.71
2023-05-23T12:36:15.178Z,67.49
2023-05-23T12:37:19.512Z,67.11
2023-05-23T12:38:16.156Z,66.91
2023-05-23T12:39:15.150Z,66.52
2023-05-23T12:40:15.122Z,66.91
2023-05-23T12:41:15.129Z,66.91
2023-05-23T12:42:15.128Z,67.72
2023-05-23T12:43:15.100Z,66.78
2023-05-23T12:44:15.095Z,66.38
2023-05-23T12:45:15.077Z,66.31
2023-05-23T12:46:15.062Z,66.21
2023-05-23T12:47:15.135Z,66.68
2023-05-23T12:48:15.176Z,66.11
2023-05-23T12:49:15.046Z,66.52
2023-05-23T12:50:15.024Z,66.18
2023-05-23T12:51:15.015Z,61.60
2023-05-23T12:52:15.005Z,60.85